Time;durP1;ratioP1;P1;durP2;ratioP2;P2;SDS_P1;SDS_P2;PMS_P1;PMS_P2;Temp;Humidity;BMP_temperature;BMP_pressure;BME280_temperature;BME280_humidity;BME280_pressure;Samples;Min_cycle;Max_cycle;Signal;HPM_P1;HPM_P2
2021/10/30 00:02:25;;;;;;;8.73;6.90;;;;;;;;;;5073842;28;20529;-72
2021/10/30 00:04:52;;;;;;;9.07;6.50;;;;;;;;;;5073173;28;20976;-72
2021/10/30 00:07:20;;;;;;;7.30;6.60;;;;;;;;;;5073492;28;20842;-71
2021/10/30 00:09:47;;;;;;;14.33;6.10;;;;;;;;;;5073180;28;20445;-72
2021/10/30 00:12:14;;;;;;;7.27;6.50;;;;;;;;;;5073436;28;20527;-71
2021/10/30 00:14:43;;;;;;;8.67;7.00;;;;;;;;;;5073138;28;20459;-71
2021/10/30 00:17:10;;;;;;;9.53;6.90;;;;;;;;;;5073425;28;20449;-71
2021/10/30 00:19:39;;;;;;;8.17;6.70;;;;;;;;;;5073082;28;20449;-71
2021/10/30 00:22:06;;;;;;;8.67;6.20;;;;;;;;;;5072980;28;20460;-71
2021/10/30 00:24:34;;;;;;;8.10;6.63;;;;;;;;;;5073299;28;20524;-72
2021/10/30 00:27:01;;;;;;;10.40;6.00;;;;;;;;;;5073314;28;20524;-72
2021/10/30 00:29:30;;;;;;;9.73;6.37;;;;;;;;;;5072986;28;20949;-72
2021/10/30 00:31:57;;;;;;;7.37;6.63;;;;;;;;;;5073217;28;20440;-72
2021/10/30 00:34:24;;;;;;;7.50;6.43;;;;;;;;;;5072911;28;20948;-72
2021/10/30 00:36:53;;;;;;;7.17;6.40;;;;;;;;;;5073151;28;20447;-72
2021/10/30 00:39:20;;;;;;;8.60;6.57;;;;;;;;;;5073704;28;20440;-71
2021/10/30 00:41:48;;;;;;;13.40;7.37;;;;;;;;;;5073161;28;20440;-72
2021/10/30 00:44:15;;;;;;;9.23;6.77;;;;;;;;;;5073096;28;20833;-71
2021/10/30 00:46:43;;;;;;;12.13;7.37;;;;;;;;;;5073670;28;20437;-72
2021/10/30 00:49:11;;;;;;;10.20;6.47;;;;;;;;;;5073100;28;20433;-71
2021/10/30 00:51:38;;;;;;;7.87;6.23;;;;;;;;;;5072503;28;20520;-72
2021/10/30 00:54:08;;;;;;;8.53;6.73;;;;;;;;;;5073165;28;20908;-72
2021/10/30 00:56:36;;;;;;;7.97;7.20;;;;;;;;;;5073031;28;20443;-72
2021/10/30 00:59:05;;;;;;;8.33;7.50;;;;;;;;;;5072678;28;20445;-72
2021/10/30 01:01:32;;;;;;;7.03;6.33;;;;;;;;;;5073598;28;20442;-72
2021/10/30 01:04:00;;;;;;;10.13;7.43;;;;;;;;;;5072706;28;20489;-71
2021/10/30 01:06:28;;;;;;;9.10;7.50;;;;;;;;;;5072152;28;20446;-71
2021/10/30 01:08:55;;;;;;;8.63;7.73;;;;;;;;;;5072432;28;20498;-71
2021/10/30 01:11:24;;;;;;;10.93;7.37;;;;;;;;;;5072687;28;20517;-71
2021/10/30 01:13:52;;;;;;;10.90;6.67;;;;;;;;;;5075509;28;20524;-71
2021/10/30 01:16:19;;;;;;;8.33;7.30;;;;;;;;;;5076379;28;20442;-71
2021/10/30 01:18:47;;;;;;;11.13;7.20;;;;;;;;;;5075974;28;20434;-71
2021/10/30 01:21:24;;;;;;;9.90;7.07;;;;;;;;;;5075660;28;20451;-71
2021/10/30 01:23:53;;;;;;;9.53;7.07;;;;;;;;;;5076236;28;20467;-72
2021/10/30 01:26:21;;;;;;;7.20;6.50;;;;;;;;;;5076319;28;20475;-71
2021/10/30 01:28:49;;;;;;;8.03;6.87;;;;;;;;;;5075911;28;20437;-72
2021/10/30 01:31:16;;;;;;;8.73;7.30;;;;;;;;;;5075884;28;20445;-72
2021/10/30 01:33:45;;;;;;;7.60;6.90;;;;;;;;;;5075835;28;20457;-72
2021/10/30 01:36:13;;;;;;;8.90;6.60;;;;;;;;;;5075745;28;20499;-72
2021/10/30 01:38:41;;;;;;;11.13;6.80;;;;;;;;;;5075389;28;20446;-72
2021/10/30 01:41:09;;;;;;;8.10;7.20;;;;;;;;;;5075622;28;20440;-71
2021/10/30 01:43:36;;;;;;;8.87;7.30;;;;;;;;;;5075553;28;20478;-72
2021/10/30 01:46:04;;;;;;;7.47;6.77;;;;;;;;;;5075247;28;20948;-71
2021/10/30 01:48:31;;;;;;;21.23;6.70;;;;;;;;;;5075520;28;20442;-71
2021/10/30 01:50:58;;;;;;;10.07;7.07;;;;;;;;;;5075512;28;20533;-71
2021/10/30 01:53:26;;;;;;;12.87;7.27;;;;;;;;;;5075566;28;20483;-71
2021/10/30 01:55:55;;;;;;;7.60;6.87;;;;;;;;;;5075371;28;20440;-72
2021/10/30 01:58:22;;;;;;;8.40;6.63;;;;;;;;;;5075054;28;20957;-71
2021/10/30 02:00:54;;;;;;;9.40;7.50;;;;;;;;;;5075366;28;20433;-71
2021/10/30 02:03:23;;;;;;;11.33;7.47;;;;;;;;;;5075237;28;20468;-72
2021/10/30 02:05:50;;;;;;;6.90;6.20;;;;;;;;;;5075237;28;20442;-72
2021/10/30 02:08:17;;;;;;;8.00;6.73;;;;;;;;;;5075097;28;20444;-71
2021/10/30 02:10:44;;;;;;;8.90;7.40;;;;;;;;;;5074704;28;20451;-71
2021/10/30 02:13:13;;;;;;;8.60;7.30;;;;;;;;;;5074923;28;20536;-71
2021/10/30 02:15:40;;;;;;;10.87;6.60;;;;;;;;;;5074714;28;20454;-71
2021/10/30 02:18:08;;;;;;;11.13;7.10;;;;;;;;;;5075376;28;20480;-71
2021/10/30 02:20:35;;;;;;;11.43;8.40;;;;;;;;;;5074531;28;20440;-72
2021/10/30 02:23:02;;;;;;;18.23;7.50;;;;;;;;;;5074084;28;20432;-72
2021/10/30 02:25:29;;;;;;;8.33;7.30;;;;;;;;;;5074744;28;20576;-71
2021/10/30 02:27:57;;;;;;;8.20;7.00;;;;;;;;;;5074749;28;20447;-71
2021/10/30 02:30:25;;;;;;;10.50;8.50;;;;;;;;;;5074319;28;20445;-70
2021/10/30 02:32:53;;;;;;;9.40;7.17;;;;;;;;;;5074699;28;20444;-71
2021/10/30 02:35:21;;;;;;;8.57;7.03;;;;;;;;;;5074324;28;20444;-70
2021/10/30 02:37:48;;;;;;;8.37;7.10;;;;;;;;;;5074007;28;20457;-71
2021/10/30 02:40:15;;;;;;;8.40;6.60;;;;;;;;;;5074540;28;20479;-70
2021/10/30 02:42:42;;;;;;;7.93;7.00;;;;;;;;;;5074511;28;20459;-71
2021/10/30 02:45:10;;;;;;;9.10;7.50;;;;;;;;;;5074025;28;20483;-70
2021/10/30 02:47:39;;;;;;;9.13;7.90;;;;;;;;;;5074377;28;20445;-72
2021/10/30 02:50:07;;;;;;;14.97;7.00;;;;;;;;;;5074007;28;20467;-72
2021/10/30 02:52:34;;;;;;;10.07;7.40;;;;;;;;;;5074489;28;20480;-72
2021/10/30 02:55:01;;;;;;;8.77;6.90;;;;;;;;;;5074266;28;20440;-72
2021/10/30 02:57:28;;;;;;;10.00;7.73;;;;;;;;;;5074494;28;20469;-71
2021/10/30 02:59:55;;;;;;;13.00;8.07;;;;;;;;;;5074040;28;20441;-72
2021/10/30 03:02:23;;;;;;;12.50;6.90;;;;;;;;;;5073855;28;20441;-72
2021/10/30 03:04:51;;;;;;;10.57;8.00;;;;;;;;;;5073865;28;20848;-71
2021/10/30 03:07:19;;;;;;;9.77;8.70;;;;;;;;;;5073990;28;20527;-72
2021/10/30 03:09:49;;;;;;;10.30;7.90;;;;;;;;;;5074533;28;20535;-71
2021/10/30 03:12:17;;;;;;;8.70;7.77;;;;;;;;;;5073721;28;20516;-72
2021/10/30 03:14:44;;;;;;;8.00;7.20;;;;;;;;;;5073995;28;20445;-72
2021/10/30 03:17:11;;;;;;;11.63;7.50;;;;;;;;;;5073413;28;20436;-71
2021/10/30 03:19:39;;;;;;;7.70;6.90;;;;;;;;;;5073333;28;20447;-72
2021/10/30 03:22:08;;;;;;;8.37;6.77;;;;;;;;;;5073944;28;20441;-71
2021/10/30 03:24:36;;;;;;;10.50;7.47;;;;;;;;;;5073338;28;20484;-71
2021/10/30 03:27:04;;;;;;;11.80;7.70;;;;;;;;;;5073561;28;20527;-72
2021/10/30 03:29:31;;;;;;;7.67;6.40;;;;;;;;;;5073501;28;20444;-71
2021/10/30 03:31:58;;;;;;;8.57;6.70;;;;;;;;;;5073598;28;20461;-73
2021/10/30 03:34:25;;;;;;;10.80;6.63;;;;;;;;;;5073059;28;20452;-72
2021/10/30 03:36:52;;;;;;;10.80;7.20;;;;;;;;;;5072893;28;20475;-71
2021/10/30 03:39:21;;;;;;;9.40;7.07;;;;;;;;;;5073400;28;20448;-71
2021/10/30 03:41:48;;;;;;;7.60;6.77;;;;;;;;;;5073162;28;20452;-72
2021/10/30 03:44:15;;;;;;;12.07;7.43;;;;;;;;;;5073379;28;20829;-72
2021/10/30 03:46:42;;;;;;;8.63;6.73;;;;;;;;;;5073389;28;20446;-72
2021/10/30 03:49:10;;;;;;;9.90;7.10;;;;;;;;;;5073312;28;20479;-71
2021/10/30 03:51:37;;;;;;;10.60;6.77;;;;;;;;;;5073056;28;20483;-72
2021/10/30 03:54:04;;;;;;;9.10;6.97;;;;;;;;;;5073371;28;20470;-72
2021/10/30 03:56:34;;;;;;;8.83;6.47;;;;;;;;;;5072868;28;20448;-71
2021/10/30 03:59:01;;;;;;;10.70;7.67;;;;;;;;;;5073872;28;20455;-71
2021/10/30 04:01:28;;;;;;;8.70;6.57;;;;;;;;;;5072689;28;20947;-72
2021/10/30 04:03:55;;;;;;;11.50;7.00;;;;;;;;;;5072720;28;20451;-72
2021/10/30 04:06:23;;;;;;;9.20;6.40;;;;;;;;;;5072798;28;20447;-72
2021/10/30 04:08:50;;;;;;;7.00;6.30;;;;;;;;;;5072843;28;20440;-71
2021/10/30 04:11:18;;;;;;;7.10;6.40;;;;;;;;;;5073076;28;20493;-72
2021/10/30 04:13:46;;;;;;;10.23;5.90;;;;;;;;;;5073347;28;20562;-72
2021/10/30 04:16:13;;;;;;;6.73;5.47;;;;;;;;;;5072747;28;20955;-72
2021/10/30 04:18:42;;;;;;;8.70;6.90;;;;;;;;;;5073017;28;20440;-72
2021/10/30 04:21:10;;;;;;;8.33;6.50;;;;;;;;;;5073110;28;20441;-72
2021/10/30 04:23:37;;;;;;;7.40;5.90;;;;;;;;;;5073298;28;20448;-72
2021/10/30 04:26:04;;;;;;;10.13;6.70;;;;;;;;;;5072588;28;20946;-72
2021/10/30 04:28:32;;;;;;;7.13;5.97;;;;;;;;;;5072813;28;20439;-71
2021/10/30 04:31:04;;;;;;;6.80;6.10;;;;;;;;;;5072620;28;20437;-74
2021/10/30 04:33:31;;;;;;;8.87;6.33;;;;;;;;;;5072754;28;20425;-75
2021/10/30 04:36:01;;;;;;;9.17;6.73;;;;;;;;;;5071881;28;20462;-74
2021/10/30 04:38:29;;;;;;;9.50;6.20;;;;;;;;;;5072763;28;20441;-74
2021/10/30 04:40:56;;;;;;;7.33;5.77;;;;;;;;;;5072284;28;20436;-74
2021/10/30 04:43:23;;;;;;;8.90;6.77;;;;;;;;;;5072480;28;20459;-74
2021/10/30 04:45:50;;;;;;;10.83;7.50;;;;;;;;;;5072472;28;20907;-74
2021/10/30 04:48:19;;;;;;;17.30;11.47;;;;;;;;;;5076307;28;20451;-74
2021/10/30 04:50:46;;;;;;;14.20;8.60;;;;;;;;;;5076015;28;20449;-74
2021/10/30 04:53:14;;;;;;;22.80;14.43;;;;;;;;;;5076666;28;20806;-74
2021/10/30 04:55:41;;;;;;;11.50;8.43;;;;;;;;;;5076507;28;20441;-74
2021/10/30 04:58:08;;;;;;;6.80;6.20;;;;;;;;;;5076089;28;20444;-74
2021/10/30 05:00:35;;;;;;;11.73;6.30;;;;;;;;;;5076419;28;20531;-74
2021/10/30 05:03:02;;;;;;;6.73;6.13;;;;;;;;;;5076153;28;20531;-73
2021/10/30 05:05:31;;;;;;;7.43;6.73;;;;;;;;;;5076121;28;20488;-74
2021/10/30 05:07:58;;;;;;;10.37;7.20;;;;;;;;;;5076300;28;20547;-73
2021/10/30 05:10:25;;;;;;;10.20;7.03;;;;;;;;;;5076337;28;20443;-74
2021/10/30 05:12:53;;;;;;;11.50;7.07;;;;;;;;;;5076204;28;20436;-73
2021/10/30 05:15:20;;;;;;;7.57;6.57;;;;;;;;;;5076374;28;20460;-73
2021/10/30 05:17:47;;;;;;;8.87;6.30;;;;;;;;;;5075745;28;20453;-74
2021/10/30 05:20:14;;;;;;;11.53;7.00;;;;;;;;;;5076116;28;20510;-75
2021/10/30 05:22:43;;;;;;;6.63;5.80;;;;;;;;;;5076374;28;20452;-74
2021/10/30 05:25:10;;;;;;;7.10;5.97;;;;;;;;;;5075582;28;20484;-73
2021/10/30 05:27:38;;;;;;;7.20;6.10;;;;;;;;;;5075867;28;20451;-73
2021/10/30 05:30:05;;;;;;;7.83;6.20;;;;;;;;;;5076011;28;20833;-73
2021/10/30 05:32:32;;;;;;;8.67;7.17;;;;;;;;;;5075948;28;20445;-74
2021/10/30 05:35:00;;;;;;;8.00;7.20;;;;;;;;;;5075737;28;20449;-75
2021/10/30 05:37:27;;;;;;;13.00;6.70;;;;;;;;;;5075794;28;20441;-74
2021/10/30 05:39:55;;;;;;;8.10;7.33;;;;;;;;;;5075754;28;20440;-75
2021/10/30 05:42:23;;;;;;;9.67;7.57;;;;;;;;;;5075317;28;20467;-73
2021/10/30 05:44:50;;;;;;;8.83;6.67;;;;;;;;;;5075607;28;20479;-73
2021/10/30 05:47:18;;;;;;;7.90;6.47;;;;;;;;;;5075141;28;20521;-74
2021/10/30 05:49:45;;;;;;;7.93;6.93;;;;;;;;;;5075648;28;20459;-73
2021/10/30 05:52:13;;;;;;;9.70;7.47;;;;;;;;;;5075419;28;20475;-73
2021/10/30 05:54:40;;;;;;;6.87;6.23;;;;;;;;;;5075185;28;20444;-74
2021/10/30 05:57:11;;;;;;;21.47;7.67;;;;;;;;;;5075145;28;20442;-74
2021/10/30 05:59:38;;;;;;;10.73;7.30;;;;;;;;;;5074954;28;20486;-73
2021/10/30 06:02:11;;;;;;;7.87;7.07;;;;;;;;;;5075026;28;20437;-74
2021/10/30 06:04:38;;;;;;;13.10;7.50;;;;;;;;;;5074915;28;20440;-74
2021/10/30 06:07:05;;;;;;;7.60;6.90;;;;;;;;;;5075112;28;20879;-74
2021/10/30 06:09:33;;;;;;;8.53;7.63;;;;;;;;;;5074973;28;20481;-73
2021/10/30 06:12:00;;;;;;;10.27;7.17;;;;;;;;;;5075610;28;20467;-74
2021/10/30 06:14:28;;;;;;;10.47;8.03;;;;;;;;;;5075082;28;20440;-74
2021/10/30 06:16:56;;;;;;;8.57;7.73;;;;;;;;;;5075065;28;20442;-73
2021/10/30 06:19:24;;;;;;;9.83;7.50;;;;;;;;;;5075229;28;20871;-73
2021/10/30 06:21:52;;;;;;;9.77;7.70;;;;;;;;;;5075136;28;20819;-74
2021/10/30 06:24:19;;;;;;;14.77;7.90;;;;;;;;;;5074810;28;20452;-73
2021/10/30 06:26:46;;;;;;;9.50;8.03;;;;;;;;;;5074962;28;20481;-74
2021/10/30 06:29:13;;;;;;;9.40;8.50;;;;;;;;;;5074876;28;20531;-74
2021/10/30 06:31:42;;;;;;;13.63;8.33;;;;;;;;;;5074697;28;21038;-74
2021/10/30 06:34:10;;;;;;;10.20;9.20;;;;;;;;;;5074824;28;20483;-74
2021/10/30 06:36:37;;;;;;;10.70;8.37;;;;;;;;;;5074539;28;20449;-74
2021/10/30 06:39:05;;;;;;;10.45;9.35;;;;;;;;;;5074776;28;20513;-74
2021/10/30 06:41:33;;;;;;;19.53;9.67;;;;;;;;;;5073690;28;20710;-74
2021/10/30 06:44:01;;;;;;;14.70;9.70;;;;;;;;;;5073721;28;20570;-75
2021/10/30 06:46:28;;;;;;;9.67;8.20;;;;;;;;;;5073780;28;20479;-76
2021/10/30 06:48:57;;;;;;;14.97;9.40;;;;;;;;;;5074094;28;20452;-75
2021/10/30 06:51:25;;;;;;;11.50;9.60;;;;;;;;;;5073933;28;20440;-75
2021/10/30 06:53:52;;;;;;;11.67;9.07;;;;;;;;;;5074364;28;20956;-75
2021/10/30 06:56:19;;;;;;;11.87;9.70;;;;;;;;;;5074187;28;20537;-75
2021/10/30 06:58:47;;;;;;;10.07;9.07;;;;;;;;;;5074511;28;20471;-75
2021/10/30 07:01:15;;;;;;;12.43;9.80;;;;;;;;;;5074758;28;20444;-75
2021/10/30 07:03:43;;;;;;;13.80;10.47;;;;;;;;;;5073966;28;20449;-75
2021/10/30 07:06:11;;;;;;;12.03;9.90;;;;;;;;;;5073915;28;20571;-74
2021/10/30 07:08:38;;;;;;;12.50;9.27;;;;;;;;;;5074009;28;20460;-75
2021/10/30 07:11:06;;;;;;;11.13;9.37;;;;;;;;;;5074107;28;20528;-75
2021/10/30 07:13:33;;;;;;;18.90;10.43;;;;;;;;;;5073768;28;20444;-75
2021/10/30 07:16:00;;;;;;;11.27;9.37;;;;;;;;;;5074131;28;20964;-74
2021/10/30 07:18:28;;;;;;;12.13;10.30;;;;;;;;;;5074175;28;20510;-74
2021/10/30 07:20:55;;;;;;;15.27;10.70;;;;;;;;;;5074047;28;20548;-75
2021/10/30 07:23:24;;;;;;;10.00;8.93;;;;;;;;;;5074175;28;20452;-75
2021/10/30 07:25:51;;;;;;;9.80;8.67;;;;;;;;;;5073895;28;20512;-74
2021/10/30 07:28:18;;;;;;;11.50;9.33;;;;;;;;;;5073933;28;20441;-75
2021/10/30 07:30:45;;;;;;;12.30;10.00;;;;;;;;;;5073568;28;20532;-75
2021/10/30 07:33:12;;;;;;;11.20;9.23;;;;;;;;;;5073585;28;20442;-74
2021/10/30 07:35:40;;;;;;;11.60;9.00;;;;;;;;;;5073502;28;20455;-73
2021/10/30 07:38:07;;;;;;;12.30;9.60;;;;;;;;;;5073800;28;20467;-74
2021/10/30 07:40:36;;;;;;;13.60;9.97;;;;;;;;;;5073809;28;20445;-73
2021/10/30 07:43:03;;;;;;;14.43;11.10;;;;;;;;;;5073354;28;20944;-74
2021/10/30 07:45:31;;;;;;;12.73;11.10;;;;;;;;;;5073306;28;20474;-76
2021/10/30 07:47:59;;;;;;;15.07;12.10;;;;;;;;;;5073819;28;20442;-73
2021/10/30 07:50:27;;;;;;;12.83;10.80;;;;;;;;;;5074466;28;20444;-75
2021/10/30 07:52:54;;;;;;;12.07;10.27;;;;;;;;;;5073684;28;20477;-73
2021/10/30 07:55:22;;;;;;;13.60;11.50;;;;;;;;;;5073287;28;20446;-75
2021/10/30 07:57:50;;;;;;;13.80;9.80;;;;;;;;;;5073197;28;20436;-75
2021/10/30 08:00:18;;;;;;;17.80;12.30;;;;;;;;;;5073512;28;20493;-74
2021/10/30 08:02:45;;;;;;;11.47;10.10;;;;;;;;;;5073180;28;20448;-74
2021/10/30 08:05:13;;;;;;;14.10;11.37;;;;;;;;;;5073061;28;20471;-75
2021/10/30 08:07:40;;;;;;;13.53;11.67;;;;;;;;;;5073555;28;20436;-75
2021/10/30 08:10:09;;;;;;;16.60;10.10;;;;;;;;;;5073071;28;20949;-75
2021/10/30 08:12:36;;;;;;;15.37;11.43;;;;;;;;;;5074135;28;20469;-76
2021/10/30 08:15:05;;;;;;;12.77;11.30;;;;;;;;;;5073179;28;20443;-75
2021/10/30 08:17:32;;;;;;;18.30;12.30;;;;;;;;;;5073391;28;20554;-75
2021/10/30 08:20:00;;;;;;;17.33;11.00;;;;;;;;;;5073473;28;20549;-76
2021/10/30 08:22:27;;;;;;;14.83;11.60;;;;;;;;;;5073411;28;20479;-75
2021/10/30 08:24:54;;;;;;;16.83;11.33;;;;;;;;;;5075895;28;20987;-75
2021/10/30 08:27:22;;;;;;;15.73;12.53;;;;;;;;;;5076790;28;20515;-75
2021/10/30 08:29:49;;;;;;;14.73;10.90;;;;;;;;;;5076865;28;20476;-75
2021/10/30 08:32:18;;;;;;;13.17;10.57;;;;;;;;;;5077361;28;20528;-74
2021/10/30 08:34:45;;;;;;;12.23;9.97;;;;;;;;;;5077019;28;20950;-75
2021/10/30 08:37:12;;;;;;;14.10;11.20;;;;;;;;;;5077357;28;20451;-76
2021/10/30 08:39:40;;;;;;;12.70;11.37;;;;;;;;;;5077069;28;20531;-75
2021/10/30 08:42:07;;;;;;;15.50;10.67;;;;;;;;;;5076545;28;20809;-75
2021/10/30 08:44:37;;;;;;;14.70;10.97;;;;;;;;;;5077467;28;20447;-75
2021/10/30 08:47:05;;;;;;;13.30;11.90;;;;;;;;;;5076356;28;20468;-76
2021/10/30 08:49:36;;;;;;;17.20;12.00;;;;;;;;;;5077115;28;20445;-76
2021/10/30 08:52:03;;;;;;;15.47;11.00;;;;;;;;;;5075393;28;20490;-75
2021/10/30 08:54:30;;;;;;;12.37;11.10;;;;;;;;;;5076506;28;20452;-77
2021/10/30 08:56:57;;;;;;;12.60;10.17;;;;;;;;;;5076060;28;20956;-76
2021/10/30 08:59:40;;;;;;;12.27;10.97;;;;;;;;;;5076895;28;20523;-76
2021/10/30 09:02:08;;;;;;;13.43;11.10;;;;;;;;;;5077110;28;20436;-75
2021/10/30 09:04:37;;;;;;;11.70;10.53;;;;;;;;;;5075688;28;20447;-75
2021/10/30 09:07:06;;;;;;;11.50;10.27;;;;;;;;;;5075790;28;20512;-77
2021/10/30 09:09:34;;;;;;;11.73;10.63;;;;;;;;;;5076458;28;20531;-76
2021/10/30 09:12:03;;;;;;;10.77;9.63;;;;;;;;;;5076514;28;20535;-75
2021/10/30 09:14:31;;;;;;;13.30;9.97;;;;;;;;;;5076549;28;20888;-75
2021/10/30 09:17:12;;;;;;;15.23;12.57;;;;;;;;;;5075474;28;20961;-75
2021/10/30 09:19:41;;;;;;;11.13;9.93;;;;;;;;;;5076108;28;20498;-75
2021/10/30 09:22:08;;;;;;;10.37;9.10;;;;;;;;;;5074508;28;20445;-76
2021/10/30 09:24:50;;;;;;;13.07;11.20;;;;;;;;;;5076027;28;20436;-76
2021/10/30 09:27:18;;;;;;;14.50;10.40;;;;;;;;;;5075492;28;20966;-77
2021/10/30 09:29:54;;;;;;;11.20;9.90;;;;;;;;;;5076302;28;20482;-75
2021/10/30 09:32:25;;;;;;;13.07;10.70;;;;;;;;;;5076231;28;20440;-75
2021/10/30 09:34:53;;;;;;;13.90;10.47;;;;;;;;;;5075246;28;20494;-75
2021/10/30 09:37:21;;;;;;;14.80;12.00;;;;;;;;;;5075347;28;20521;-76
2021/10/30 09:39:48;;;;;;;14.27;11.27;;;;;;;;;;5075756;28;20535;-75
2021/10/30 09:42:25;;;;;;;11.83;10.40;;;;;;;;;;5075492;28;20789;-76
2021/10/30 09:45:07;;;;;;;11.17;10.03;;;;;;;;;;5075719;28;20420;-76
2021/10/30 09:47:34;;;;;;;10.70;9.63;;;;;;;;;;5075510;28;20491;-76
2021/10/30 09:50:03;;;;;;;10.13;9.07;;;;;;;;;;5075757;28;20449;-76
2021/10/30 09:52:30;;;;;;;11.07;9.83;;;;;;;;;;5075453;28;20474;-76
2021/10/30 09:54:59;;;;;;;12.27;9.47;;;;;;;;;;5073808;28;20445;-77
2021/10/30 09:57:28;;;;;;;11.77;9.50;;;;;;;;;;5074824;28;20456;-75
2021/10/30 09:59:55;;;;;;;10.47;9.40;;;;;;;;;;5074754;28;20786;-76
2021/10/30 10:02:23;;;;;;;11.50;9.23;;;;;;;;;;5075423;28;20432;-76
2021/10/30 10:04:50;;;;;;;9.90;8.90;;;;;;;;;;5075424;28;20455;-76
2021/10/30 10:07:20;;;;;;;8.93;8.03;;;;;;;;;;5074214;28;20530;-76
2021/10/30 10:09:47;;;;;;;9.20;8.07;;;;;;;;;;5075314;28;20437;-76
2021/10/30 10:12:15;;;;;;;10.20;8.83;;;;;;;;;;5075084;28;20441;-75
2021/10/30 10:14:43;;;;;;;9.17;8.13;;;;;;;;;;5074286;28;20519;-75
2021/10/30 10:17:11;;;;;;;10.97;8.10;;;;;;;;;;5074509;28;20464;-76
2021/10/30 10:19:39;;;;;;;8.90;8.10;;;;;;;;;;5074950;28;20437;-75
2021/10/30 10:22:07;;;;;;;13.00;8.67;;;;;;;;;;5074551;28;20484;-75
2021/10/30 10:24:37;;;;;;;9.63;8.63;;;;;;;;;;5073043;28;20566;-75
2021/10/30 10:27:06;;;;;;;8.43;7.33;;;;;;;;;;5074359;28;20508;-75
2021/10/30 10:29:35;;;;;;;9.20;8.30;;;;;;;;;;5075016;28;20475;-75
2021/10/30 10:32:03;;;;;;;9.87;8.40;;;;;;;;;;5074143;28;20445;-76
2021/10/30 10:34:31;;;;;;;12.30;9.17;;;;;;;;;;5074978;28;20433;-75
2021/10/30 10:37:19;;;;;;;16.40;9.00;;;;;;;;;;5074402;28;20545;-75
2021/10/30 10:39:49;;;;;;;7.73;7.00;;;;;;;;;;5074760;28;20558;-75
2021/10/30 10:42:17;;;;;;;7.90;6.90;;;;;;;;;;5074389;28;20515;-75
2021/10/30 10:44:55;;;;;;;9.63;6.60;;;;;;;;;;5074122;28;20433;-75
2021/10/30 10:47:41;;;;;;;8.07;7.23;;;;;;;;;;5074193;28;20458;-76
2021/10/30 10:50:09;;;;;;;8.90;7.70;;;;;;;;;;5074658;28;20438;-76
2021/10/30 10:52:36;;;;;;;11.80;7.07;;;;;;;;;;5074462;28;20862;-75
2021/10/30 10:55:08;;;;;;;13.13;9.37;;;;;;;;;;5072200;28;20432;-75
2021/10/30 10:57:36;;;;;;;8.80;7.70;;;;;;;;;;5073653;28;20445;-76
2021/10/30 11:00:07;;;;;;;8.17;7.30;;;;;;;;;;5074467;28;20528;-76
2021/10/30 11:02:35;;;;;;;10.17;7.77;;;;;;;;;;5074545;28;20421;-77
2021/10/30 11:05:27;;;;;;;9.40;7.93;;;;;;;;;;5074546;28;20535;-76
2021/10/30 11:08:18;;;;;;;12.13;8.63;;;;;;;;;;5073479;28;20470;-76
2021/10/30 11:10:47;;;;;;;9.90;8.17;;;;;;;;;;5073943;28;20424;-76
2021/10/30 11:13:19;;;;;;;7.70;6.57;;;;;;;;;;5074613;28;20475;-76
2021/10/30 11:15:48;;;;;;;15.50;9.90;;;;;;;;;;5074600;28;20523;-78
2021/10/30 11:18:20;;;;;;;8.07;6.60;;;;;;;;;;5073561;28;20950;-77
2021/10/30 11:20:55;;;;;;;9.43;7.00;;;;;;;;;;5073087;28;21005;-78
2021/10/30 11:23:27;;;;;;;8.90;7.80;;;;;;;;;;5074378;28;20808;-77
2021/10/30 11:25:57;;;;;;;10.53;7.07;;;;;;;;;;5073012;28;20449;-78
2021/10/30 11:28:25;;;;;;;8.77;7.50;;;;;;;;;;5072109;28;20480;-77
2021/10/30 11:30:52;;;;;;;8.93;7.23;;;;;;;;;;5073259;28;20455;-79
2021/10/30 11:33:23;;;;;;;12.07;8.13;;;;;;;;;;5073539;28;20938;-77
2021/10/30 11:35:58;;;;;;;7.83;7.03;;;;;;;;;;5073574;28;20791;-76
2021/10/30 11:38:25;;;;;;;10.23;7.93;;;;;;;;;;5073130;28;20526;-77
2021/10/30 11:40:53;;;;;;;13.43;7.90;;;;;;;;;;5073485;28;20437;-77
2021/10/30 11:43:22;;;;;;;8.93;6.67;;;;;;;;;;5073508;28;20433;-77
2021/10/30 11:45:50;;;;;;;13.57;9.53;;;;;;;;;;5073366;28;20787;-76
2021/10/30 11:48:17;;;;;;;13.17;8.13;;;;;;;;;;5072717;28;20476;-77
2021/10/30 11:50:54;;;;;;;11.90;8.10;;;;;;;;;;5073553;28;20536;-77
2021/10/30 11:53:22;;;;;;;9.80;7.80;;;;;;;;;;5073081;28;20487;-77
2021/10/30 11:55:58;;;;;;;10.03;7.90;;;;;;;;;;5072342;28;20934;-78
2021/10/30 11:58:36;;;;;;;8.80;6.97;;;;;;;;;;5071327;28;20846;-77
2021/10/30 12:01:18;;;;;;;9.00;7.20;;;;;;;;;;5072989;28;20463;-78
2021/10/30 12:03:45;;;;;;;12.83;7.90;;;;;;;;;;5073627;28;20426;-77
2021/10/30 12:06:12;;;;;;;9.90;7.10;;;;;;;;;;5072550;28;20498;-78
2021/10/30 12:08:40;;;;;;;10.07;7.67;;;;;;;;;;5072473;28;20977;-76
2021/10/30 12:11:09;;;;;;;9.70;7.60;;;;;;;;;;5073373;28;20451;-77
2021/10/30 12:13:37;;;;;;;10.30;7.60;;;;;;;;;;5073342;28;20456;-76
2021/10/30 12:16:05;;;;;;;8.50;7.57;;;;;;;;;;5072843;28;20664;-78
2021/10/30 12:18:32;;;;;;;7.97;7.00;;;;;;;;;;5073071;28;21003;-77
2021/10/30 12:21:00;;;;;;;8.43;7.40;;;;;;;;;;5072038;28;20535;-77
2021/10/30 12:23:27;;;;;;;10.20;9.23;;;;;;;;;;5073110;28;20532;-76
2021/10/30 12:26:01;;;;;;;10.50;8.67;;;;;;;;;;5072478;28;20475;-77
2021/10/30 12:28:32;;;;;;;9.07;8.17;;;;;;;;;;5071766;28;20476;-76
2021/10/30 12:31:01;;;;;;;13.57;9.50;;;;;;;;;;5072913;28;20440;-77
2021/10/30 12:33:33;;;;;;;10.53;8.73;;;;;;;;;;5072855;28;20910;-77
2021/10/30 12:36:00;;;;;;;8.77;7.90;;;;;;;;;;5073420;28;20429;-76
2021/10/30 12:38:27;;;;;;;9.80;8.80;;;;;;;;;;5072847;28;20450;-76
2021/10/30 12:40:56;;;;;;;9.20;8.30;;;;;;;;;;5072717;28;20535;-77
2021/10/30 12:43:24;;;;;;;9.30;8.30;;;;;;;;;;5073203;28;20989;-77
2021/10/30 12:45:52;;;;;;;12.90;9.80;;;;;;;;;;5072484;28;20448;-76
2021/10/30 12:48:22;;;;;;;10.10;9.00;;;;;;;;;;5073251;28;20831;-77
2021/10/30 12:50:57;;;;;;;11.23;10.13;;;;;;;;;;5072530;28;20442;-77
2021/10/30 12:53:29;;;;;;;11.23;10.07;;;;;;;;;;5072511;28;20476;-78
2021/10/30 12:56:04;;;;;;;10.50;8.83;;;;;;;;;;5072792;28;20441;-77
2021/10/30 12:58:42;;;;;;;9.57;8.43;;;;;;;;;;5070939;28;20443;-77
2021/10/30 13:01:17;;;;;;;10.07;9.07;;;;;;;;;;5072521;28;20475;-77
2021/10/30 13:03:45;;;;;;;14.20;11.53;;;;;;;;;;5072857;28;20436;-77
2021/10/30 13:06:14;;;;;;;10.33;9.23;;;;;;;;;;5072693;28;20507;-77
2021/10/30 13:08:49;;;;;;;11.27;10.10;;;;;;;;;;5074743;28;20477;-79
2021/10/30 13:11:18;;;;;;;12.63;9.60;;;;;;;;;;5076454;28;20442;-77
2021/10/30 13:13:45;;;;;;;10.27;9.27;;;;;;;;;;5076252;28;20937;-74
2021/10/30 13:16:12;;;;;;;11.40;10.20;;;;;;;;;;5076278;28;20786;-78
2021/10/30 13:18:41;;;;;;;11.57;9.80;;;;;;;;;;5076349;28;20436;-78
2021/10/30 13:21:15;;;;;;;11.00;9.90;;;;;;;;;;5075520;28;20498;-77
2021/10/30 13:23:43;;;;;;;13.93;9.20;;;;;;;;;;5076144;28;20512;-76
2021/10/30 13:26:11;;;;;;;12.63;11.33;;;;;;;;;;5075935;28;20525;-76
2021/10/30 13:28:38;;;;;;;11.70;10.20;;;;;;;;;;5075623;28;20472;-75
2021/10/30 13:31:05;;;;;;;13.83;10.93;;;;;;;;;;5074384;28;20445;-75
2021/10/30 13:33:32;;;;;;;12.60;10.57;;;;;;;;;;5075585;28;20447;-74
2021/10/30 13:35:59;;;;;;;10.90;9.80;;;;;;;;;;5075554;28;20544;-75
2021/10/30 13:38:28;;;;;;;12.43;10.57;;;;;;;;;;5075592;28;20930;-77
2021/10/30 13:40:55;;;;;;;12.27;10.50;;;;;;;;;;5075436;28;20481;-75
2021/10/30 13:43:23;;;;;;;16.20;9.97;;;;;;;;;;5076244;28;20947;-75
2021/10/30 13:45:50;;;;;;;12.07;10.30;;;;;;;;;;5075232;28;20440;-76
2021/10/30 13:48:17;;;;;;;18.90;10.93;;;;;;;;;;5075307;28;20479;-75
2021/10/30 13:50:44;;;;;;;16.67;10.70;;;;;;;;;;5075521;28;20449;-76
2021/10/30 13:53:11;;;;;;;12.50;10.47;;;;;;;;;;5075789;28;20477;-76
2021/10/30 13:55:40;;;;;;;12.03;10.37;;;;;;;;;;5075835;28;20808;-75
2021/10/30 13:58:07;;;;;;;12.40;11.10;;;;;;;;;;5074849;28;20441;-76
2021/10/30 14:00:34;;;;;;;13.80;10.80;;;;;;;;;;5073810;28;20537;-76
2021/10/30 14:03:02;;;;;;;12.97;10.83;;;;;;;;;;5075322;28;20433;-76
2021/10/30 14:05:29;;;;;;;13.33;10.93;;;;;;;;;;5075601;28;20438;-77
2021/10/30 14:07:57;;;;;;;13.67;10.90;;;;;;;;;;5074933;28;20568;-77
2021/10/30 14:10:24;;;;;;;13.77;10.00;;;;;;;;;;5074949;28;20533;-76
2021/10/30 14:12:52;;;;;;;11.93;10.73;;;;;;;;;;5075375;28;20451;-77
2021/10/30 14:15:20;;;;;;;12.10;10.87;;;;;;;;;;5075322;28;20437;-76
2021/10/30 14:17:47;;;;;;;16.00;9.83;;;;;;;;;;5074756;28;20445;-77
2021/10/30 14:20:14;;;;;;;14.87;10.20;;;;;;;;;;5074297;28;20720;-76
2021/10/30 14:22:41;;;;;;;12.47;10.00;;;;;;;;;;5074227;28;20459;-77
2021/10/30 14:25:09;;;;;;;9.90;8.87;;;;;;;;;;5074646;28;20950;-76
2021/10/30 14:27:36;;;;;;;9.33;8.40;;;;;;;;;;5074609;28;20978;-76
2021/10/30 14:30:05;;;;;;;10.00;7.93;;;;;;;;;;5074815;28;20447;-76
2021/10/30 14:32:33;;;;;;;7.53;6.73;;;;;;;;;;5073041;28;21088;-75
2021/10/30 14:35:00;;;;;;;4.97;4.47;;;;;;;;;;5074432;28;20444;-75
2021/10/30 14:37:27;;;;;;;7.43;4.80;;;;;;;;;;5074350;28;20440;-76
2021/10/30 14:39:54;;;;;;;6.93;4.73;;;;;;;;;;5074572;28;20446;-75
2021/10/30 14:42:21;;;;;;;5.83;4.40;;;;;;;;;;5074791;28;20436;-75